Rudolph, Texas
Current Conditions -  °F | °C
As of 5:35 AM on Saturday 25 Oct 2014 (Local Time) from KBKS Reporting Station
Clear Clear  
Wind Chill: 60°   Ceiling: Unl
Heat Index: 60°   Visibility: 10mi
Dew Point: 58°   Wind: 3mph
Humidity: 94%   Direction: 330°NNW
Pressure: 30.12"   Gusts: NA
Location:  26.8954°N, 97.7184°W
Report Text: KBKS 251035Z AUTO 33003KT 10SM CLR 15/15 A3012 RMK AO1 T01540145
Loading
Personal Weather Stations






























Interactive Weather Map
Tropical Storm Tracking
New forecast layout! Learn more

10-Day Weather Forecast

Advertisements
Track Severe Weather on mobile